createdAt,value
2023-02-08T00:01:08.351Z,30.50
2023-02-08T00:03:35.776Z,33.05
2023-02-08T00:06:03.477Z,33.15
2023-02-08T00:08:31.016Z,31.60
2023-02-08T00:10:58.124Z,30.98
2023-02-08T00:13:25.141Z,34.08
2023-02-08T00:15:54.127Z,32.72
2023-02-08T00:18:22.329Z,35.85
2023-02-08T00:20:49.647Z,36.92
2023-02-08T00:23:17.374Z,38.28
2023-02-08T00:25:44.331Z,35.08
2023-02-08T00:28:14.933Z,38.17
2023-02-08T00:30:43.096Z,34.80
2023-02-08T00:33:11.025Z,39.33
2023-02-08T00:35:38.130Z,39.35
2023-02-08T00:38:05.061Z,38.35
2023-02-08T00:40:31.862Z,39.97
2023-02-08T00:42:58.719Z,41.55
2023-02-08T00:45:25.517Z,43.40
2023-02-08T00:47:52.263Z,43.63
2023-02-08T00:50:19.553Z,40.38
2023-02-08T00:52:46.324Z,40.85
2023-02-08T00:55:13.115Z,38.95
2023-02-08T00:57:39.876Z,36.60
2023-02-08T01:00:09.223Z,38.45
2023-02-08T01:02:38.947Z,36.28
2023-02-08T01:05:06.428Z,35.08
2023-02-08T01:07:33.197Z,36.42
2023-02-08T01:10:00.806Z,36.65
2023-02-08T01:12:27.756Z,33.58
2023-02-08T01:14:54.522Z,43.03
2023-02-08T01:17:21.276Z,41.78
2023-02-08T01:19:48.084Z,41.05
2023-02-08T01:22:14.841Z,41.72
2023-02-08T01:24:41.932Z,42.80
2023-02-08T01:27:08.839Z,41.70
2023-02-08T01:29:35.695Z,35.95
2023-02-08T01:32:02.514Z,40.08
2023-02-08T01:34:29.316Z,37.67
2023-02-08T01:36:56.104Z,36.75
2023-02-08T01:39:23.248Z,37.58
2023-02-08T01:41:50.015Z,35.42
2023-02-08T01:44:19.508Z,34.10
2023-02-08T01:46:51.381Z,34.47
2023-02-08T01:49:24.317Z,37.63
2023-02-08T01:52:00.845Z,33.78
2023-02-08T01:54:37.159Z,35.05
2023-02-08T01:57:04.899Z,35.83
2023-02-08T01:59:46.132Z,34.67
2023-02-08T02:02:17.145Z,35.10
2023-02-08T02:04:44.581Z,31.48
2023-02-08T02:07:13.439Z,33.33
2023-02-08T02:10:08.139Z,32.95
2023-02-08T02:12:37.189Z,22.67
2023-02-08T02:15:05.825Z,34.15
2023-02-08T02:17:33.151Z,34.70
2023-02-08T02:20:39.183Z,32.95
2023-02-08T02:23:25.583Z,30.90
2023-02-08T02:26:22.939Z,31.50
2023-02-08T02:29:27.552Z,30.80
2023-02-08T02:32:55.788Z,32.45
2023-02-08T02:36:01.395Z,32.90
2023-02-08T02:39:03.786Z,34.17
2023-02-08T02:42:11.047Z,38.08
2023-02-08T02:45:00.358Z,34.83
2023-02-08T02:48:32.877Z,35.83
2023-02-08T02:51:10.474Z,34.67
2023-02-08T02:53:58.353Z,37.83
2023-02-08T02:56:32.401Z,33.97
2023-02-08T02:59:06.129Z,34.53
2023-02-08T03:01:33.626Z,34.23
2023-02-08T03:04:01.166Z,39.58
2023-02-08T03:06:55.570Z,37.00
2023-02-08T03:09:28.315Z,35.47
2023-02-08T03:12:29.199Z,40.80
2023-02-08T03:15:48.397Z,42.45
2023-02-08T03:18:24.141Z,37.88
2023-02-08T03:21:23.486Z,35.67
2023-02-08T03:24:00.126Z,35.33
2023-02-08T03:26:47.193Z,42.15
2023-02-08T03:29:23.257Z,37.38
2023-02-08T03:32:25.438Z,34.30
2023-02-08T03:35:06.205Z,36.20
2023-02-08T03:38:08.227Z,38.88
2023-02-08T03:40:43.147Z,37.28
2023-02-08T03:43:29.764Z,41.10
2023-02-08T03:46:44.101Z,38.78
2023-02-08T03:49:25.103Z,39.22
2023-02-08T03:51:53.570Z,38.10
2023-02-08T03:54:24.691Z,37.42
2023-02-08T03:57:10.796Z,37.58
2023-02-08T03:59:42.993Z,34.28
2023-02-08T04:02:19.519Z,38.03
2023-02-08T04:04:50.290Z,32.63
2023-02-08T04:07:19.504Z,32.50
2023-02-08T04:09:46.930Z,29.70
2023-02-08T04:12:13.866Z,28.02
2023-02-08T04:14:40.678Z,31.27
2023-02-08T04:17:07.837Z,28.02
2023-02-08T04:19:34.633Z,29.42
2023-02-08T04:22:01.559Z,32.33
2023-02-08T04:24:28.349Z,31.75
2023-02-08T04:26:55.197Z,29.77
2023-02-08T04:29:22.286Z,31.15
2023-02-08T04:31:49.245Z,33.13
2023-02-08T04:34:16.582Z,32.13
2023-02-08T04:36:43.754Z,31.05
2023-02-08T04:39:10.799Z,29.20
2023-02-08T04:41:37.568Z,30.58
2023-02-08T04:44:04.329Z,28.98
2023-02-08T04:46:31.177Z,32.55
2023-02-08T04:48:58.989Z,30.75
2023-02-08T04:51:25.928Z,29.17
2023-02-08T04:53:52.692Z,33.08
2023-02-08T04:56:19.833Z,34.30
2023-02-08T04:58:48.569Z,33.38
2023-02-08T05:01:16.677Z,35.00
2023-02-08T05:03:43.513Z,36.45
2023-02-08T05:06:10.645Z,34.63
2023-02-08T05:08:37.564Z,35.85
2023-02-08T05:11:04.594Z,40.85
2023-02-08T05:13:31.964Z,38.58
2023-02-08T05:15:58.771Z,41.67
2023-02-08T05:18:25.759Z,42.22
2023-02-08T05:21:00.991Z,43.58
2023-02-08T05:23:28.264Z,41.95
2023-02-08T05:25:55.377Z,44.65
2023-02-08T05:28:22.588Z,46.47
2023-02-08T05:30:49.829Z,46.30
2023-02-08T05:33:16.987Z,46.58
2023-02-08T05:35:45.468Z,50.25
2023-02-08T05:38:12.482Z,49.47
2023-02-08T05:40:39.552Z,49.97
2023-02-08T05:43:06.504Z,50.67
2023-02-08T05:45:33.514Z,52.40
2023-02-08T05:48:00.306Z,53.30
2023-02-08T05:50:28.153Z,60.55
2023-02-08T05:52:55.033Z,52.30
2023-02-08T05:55:21.803Z,67.68
2023-02-08T05:57:48.821Z,68.00
2023-02-08T06:00:16.313Z,65.80
2023-02-08T06:02:43.395Z,58.60
2023-02-08T06:05:10.232Z,74.53
2023-02-08T06:07:37.106Z,68.15
2023-02-08T06:10:05.013Z,73.78
2023-02-08T06:12:31.939Z,63.70
2023-02-08T06:14:58.850Z,64.55
2023-02-08T06:17:28.764Z,62.28
2023-02-08T06:19:55.789Z,57.47
2023-02-08T06:22:22.631Z,56.40
2023-02-08T06:24:49.406Z,54.95
2023-02-08T06:27:16.554Z,53.05
2023-02-08T06:29:43.370Z,54.45
2023-02-08T06:32:10.226Z,52.80
2023-02-08T06:34:37.148Z,52.70
2023-02-08T06:37:05.727Z,50.25
2023-02-08T06:39:32.975Z,53.20
2023-02-08T06:41:59.768Z,47.80
2023-02-08T06:44:26.661Z,51.67
2023-02-08T06:46:53.532Z,49.60
2023-02-08T06:49:20.291Z,47.45
2023-02-08T06:51:47.264Z,50.38
2023-02-08T06:54:15.720Z,48.80
2023-02-08T06:56:43.572Z,50.60
2023-02-08T06:59:10.599Z,44.38
2023-02-08T07:01:37.432Z,47.78
2023-02-08T07:04:04.905Z,43.50
2023-02-08T07:06:31.953Z,45.88
2023-02-08T07:08:58.905Z,49.50
2023-02-08T07:11:25.941Z,48.42
2023-02-08T07:13:54.660Z,49.03
2023-02-08T07:16:21.761Z,47.58
2023-02-08T07:18:48.588Z,48.80
2023-02-08T07:21:15.818Z,51.40
2023-02-08T07:23:42.741Z,48.45
2023-02-08T07:26:12.502Z,49.22
2023-02-08T07:28:39.766Z,47.75
2023-02-08T07:31:13.725Z,48.05
2023-02-08T07:33:41.324Z,57.13
2023-02-08T07:36:10.596Z,51.63
2023-02-08T07:38:38.878Z,54.20
2023-02-08T07:41:09.733Z,55.83
2023-02-08T07:43:38.755Z,53.25
2023-02-08T07:46:19.222Z,58.00
2023-02-08T07:48:46.937Z,63.67
2023-02-08T07:51:13.732Z,62.08
2023-02-08T07:53:41.248Z,58.58
2023-02-08T07:56:08.291Z,79.43
2023-02-08T07:58:35.046Z,74.65
2023-02-08T08:01:12.564Z,83.07
2023-02-08T08:03:48.212Z,72.25
2023-02-08T08:06:15.035Z,72.32
2023-02-08T08:08:42.536Z,68.35
2023-02-08T08:11:09.438Z,73.43
2023-02-08T08:13:36.219Z,72.43
2023-02-08T08:16:03.074Z,73.85
2023-02-08T08:18:29.992Z,67.70
2023-02-08T08:20:56.806Z,72.13
2023-02-08T08:23:24.149Z,71.53
2023-02-08T08:25:51.262Z,69.25
2023-02-08T08:28:18.209Z,75.13
2023-02-08T08:30:46.014Z,70.95
2023-02-08T08:33:14.597Z,67.32
2023-02-08T08:35:43.045Z,68.15
2023-02-08T08:38:10.297Z,69.93
2023-02-08T08:40:37.063Z,67.03
2023-02-08T08:43:03.817Z,70.93
2023-02-08T08:45:30.670Z,69.97
2023-02-08T08:47:57.624Z,71.50
2023-02-08T08:50:24.400Z,69.88
2023-02-08T08:52:51.316Z,71.40
2023-02-08T08:55:18.223Z,63.00
2023-02-08T08:57:45.280Z,68.45
2023-02-08T09:00:13.222Z,68.57
2023-02-08T09:02:40.039Z,63.13
2023-02-08T09:05:08.321Z,73.60
2023-02-08T09:07:35.554Z,67.60
2023-02-08T09:10:02.505Z,70.40
2023-02-08T09:12:29.702Z,68.35
2023-02-08T09:14:56.810Z,65.75
2023-02-08T09:17:23.662Z,67.80
2023-02-08T09:19:50.456Z,70.70
2023-02-08T09:22:17.421Z,67.55
2023-02-08T09:24:44.300Z,68.20
2023-02-08T09:27:11.432Z,62.85
2023-02-08T09:29:38.184Z,65.03
2023-02-08T09:32:05.202Z,62.08
2023-02-08T09:34:31.950Z,56.40
2023-02-08T09:36:58.801Z,57.28
2023-02-08T09:39:26.430Z,55.30
2023-02-08T09:42:24.790Z,53.70
2023-02-08T09:45:24.541Z,50.03
2023-02-08T09:48:27.006Z,50.33
2023-02-08T09:51:07.878Z,50.63
2023-02-08T09:53:41.622Z,50.22
2023-02-08T09:56:15.684Z,49.40
2023-02-08T09:58:50.265Z,38.65
2023-02-08T10:01:31.169Z,46.92
2023-02-08T10:04:04.782Z,46.40
2023-02-08T10:06:32.010Z,43.20
2023-02-08T10:09:07.231Z,41.45
2023-02-08T10:12:18.493Z,41.55
2023-02-08T10:15:52.533Z,39.25
2023-02-08T10:18:26.808Z,37.33
2023-02-08T10:21:26.111Z,35.33
2023-02-08T10:24:45.431Z,34.35
2023-02-08T10:27:23.626Z,33.83
2023-02-08T10:30:16.972Z,31.35
2023-02-08T10:33:01.872Z,29.52
2023-02-08T10:35:38.893Z,29.27
2023-02-08T10:38:44.058Z,27.70
2023-02-08T10:41:20.325Z,26.45
2023-02-08T10:44:03.670Z,25.13
2023-02-08T10:46:46.122Z,25.17
2023-02-08T10:49:52.036Z,25.42
2023-02-08T10:54:45.529Z,22.63
2023-02-08T10:57:22.831Z,21.67
2023-02-08T11:00:05.429Z,22.70
2023-02-08T11:02:41.472Z,23.08
2023-02-08T11:05:37.558Z,23.38
2023-02-08T11:08:08.900Z,22.38
2023-02-08T11:10:38.325Z,25.05
2023-02-08T11:13:19.145Z,24.10
2023-02-08T11:15:55.554Z,22.63
2023-02-08T11:18:48.573Z,21.83
2023-02-08T11:21:25.298Z,21.85
2023-02-08T11:23:55.669Z,21.13
2023-02-08T11:26:33.982Z,20.23
2023-02-08T11:29:23.908Z,20.83
2023-02-08T11:32:15.316Z,21.35
2023-02-08T11:34:42.153Z,22.23
2023-02-08T11:37:22.834Z,20.52
2023-02-08T11:39:58.388Z,20.40
2023-02-08T11:42:28.331Z,20.50
2023-02-08T11:44:57.867Z,20.75
2023-02-08T11:47:29.396Z,20.38
2023-02-08T11:50:03.666Z,19.15
2023-02-08T11:52:36.254Z,18.80
2023-02-08T11:55:21.819Z,19.35
2023-02-08T11:58:01.641Z,17.13
2023-02-08T12:00:35.642Z,18.25
2023-02-08T12:03:08.433Z,18.03
2023-02-08T12:05:44.761Z,18.58
2023-02-08T12:08:26.174Z,17.70
2023-02-08T12:11:14.217Z,18.33
2023-02-08T12:14:22.771Z,15.82
2023-02-08T12:17:39.486Z,17.52
2023-02-08T12:20:32.317Z,16.95
2023-02-08T12:23:39.048Z,17.13
2023-02-08T12:26:19.702Z,14.75
2023-02-08T12:29:12.735Z,14.43
2023-02-08T12:31:54.905Z,14.80
2023-02-08T12:34:33.897Z,13.60
2023-02-08T12:37:40.001Z,13.95
2023-02-08T12:40:41.760Z,13.32
2023-02-08T12:43:33.233Z,13.13
2023-02-08T12:46:31.079Z,13.85
2023-02-08T12:49:31.908Z,13.80
2023-02-08T12:52:19.395Z,13.98
2023-02-08T12:54:56.813Z,14.32
2023-02-08T12:57:26.169Z,13.23
2023-02-08T13:00:08.574Z,13.10
2023-02-08T13:02:57.871Z,12.77
2023-02-08T13:05:34.767Z,12.98
2023-02-08T13:08:26.824Z,12.98
2023-02-08T13:11:10.740Z,12.32
2023-02-08T13:13:56.816Z,12.70
2023-02-08T13:16:30.189Z,12.02
2023-02-08T13:19:24.240Z,10.88
2023-02-08T13:21:53.993Z,9.50
2023-02-08T13:24:34.838Z,9.98
2023-02-08T13:27:01.710Z,8.80
2023-02-08T13:29:33.384Z,9.95
2023-02-08T13:32:08.613Z,9.93
2023-02-08T13:34:48.808Z,8.93
2023-02-08T13:37:28.275Z,9.48
2023-02-08T13:40:28.557Z,8.32
2023-02-08T13:43:06.128Z,9.00
2023-02-08T13:45:38.347Z,9.25
2023-02-08T13:48:08.950Z,9.18
2023-02-08T13:50:38.625Z,10.57
2023-02-08T13:53:09.332Z,10.40
2023-02-08T13:55:46.313Z,10.38
2023-02-08T13:58:16.022Z,10.23
2023-02-08T14:00:58.214Z,11.88
2023-02-08T14:03:28.241Z,12.00
2023-02-08T14:06:19.438Z,11.75
2023-02-08T14:08:54.374Z,12.00
2023-02-08T14:14:34.375Z,13.35
2023-02-08T14:17:04.202Z,13.35
2023-02-08T14:19:34.765Z,13.52
2023-02-08T14:22:07.093Z,12.85
2023-02-08T14:24:40.292Z,13.43
2023-02-08T14:27:24.186Z,13.93
2023-02-08T14:30:07.460Z,13.75
2023-02-08T14:32:39.383Z,13.20
2023-02-08T14:35:27.338Z,13.88
2023-02-08T14:38:19.051Z,13.43
2023-02-08T14:40:57.915Z,13.65
2023-02-08T14:43:38.642Z,14.70
2023-02-08T14:46:40.340Z,14.30
2023-02-08T14:49:17.471Z,13.90
2023-02-08T14:51:56.383Z,14.25
2023-02-08T14:54:34.230Z,14.57
2023-02-08T14:57:20.357Z,15.45
2023-02-08T14:59:48.402Z,15.77
2023-02-08T15:02:22.735Z,15.57
2023-02-08T15:04:50.133Z,14.55
2023-02-08T15:07:33.538Z,15.73
2023-02-08T15:10:05.977Z,14.52
2023-02-08T15:12:37.164Z,14.55
2023-02-08T15:15:06.594Z,15.23
2023-02-08T15:17:34.818Z,15.20
2023-02-08T15:20:06.430Z,15.43
2023-02-08T15:22:38.522Z,13.60
2023-02-08T15:25:22.916Z,14.10
2023-02-08T15:27:59.759Z,14.40
2023-02-08T15:30:35.447Z,14.43
2023-02-08T15:33:14.638Z,14.35
2023-02-08T15:35:43.548Z,13.75
2023-02-08T15:38:20.302Z,14.23
2023-02-08T15:41:05.304Z,13.85
2023-02-08T15:43:33.769Z,13.27
2023-02-08T15:46:05.340Z,13.27
2023-02-08T15:48:34.073Z,13.63
2023-02-08T15:51:01.968Z,13.95
2023-02-08T15:53:29.854Z,12.88
2023-02-08T15:56:02.069Z,12.52
2023-02-08T15:58:37.905Z,12.13
2023-02-08T16:01:07.565Z,12.35
2023-02-08T16:03:37.020Z,12.85
2023-02-08T16:06:06.957Z,12.23
2023-02-08T16:08:43.192Z,12.00
2023-02-08T16:11:14.263Z,11.80
2023-02-08T16:13:47.244Z,12.48
2023-02-08T16:16:21.868Z,11.88
2023-02-08T16:19:02.470Z,12.23
2023-02-08T16:21:39.633Z,12.60
2023-02-08T16:24:30.116Z,11.75
2023-02-08T16:27:18.132Z,11.52
2023-02-08T16:29:47.647Z,12.38
2023-02-08T16:32:34.338Z,11.57
2023-02-08T16:35:19.230Z,12.32
2023-02-08T16:37:46.288Z,13.43
2023-02-08T16:40:42.494Z,12.18
2023-02-08T16:43:33.990Z,13.52
2023-02-08T16:46:16.602Z,14.18
2023-02-08T16:48:48.509Z,13.43
2023-02-08T16:51:22.107Z,14.27
2023-02-08T16:53:56.975Z,14.57
2023-02-08T16:58:51.500Z,14.35
2023-02-08T17:01:26.512Z,14.80
2023-02-08T17:03:53.464Z,14.50
2023-02-08T17:06:32.154Z,14.57
2023-02-08T17:09:00.908Z,14.32
2023-02-08T17:11:28.729Z,14.77
2023-02-08T17:13:56.243Z,14.85
2023-02-08T17:16:27.259Z,15.32
2023-02-08T17:18:54.497Z,15.80
2023-02-08T17:21:22.081Z,16.08
2023-02-08T17:23:49.873Z,14.13
2023-02-08T17:26:30.133Z,16.13
2023-02-08T17:28:59.612Z,14.90
2023-02-08T17:31:29.812Z,16.23
2023-02-08T17:34:04.242Z,16.48
2023-02-08T17:36:34.201Z,17.10
2023-02-08T17:39:02.189Z,16.38
2023-02-08T17:41:29.022Z,15.18
2023-02-08T17:43:57.938Z,16.60
2023-02-08T17:46:28.324Z,15.38
2023-02-08T17:48:55.211Z,15.55
2023-02-08T17:51:24.283Z,15.88
2023-02-08T17:53:51.194Z,14.38
2023-02-08T17:56:21.451Z,15.07
2023-02-08T17:58:52.933Z,14.38
2023-02-08T18:01:25.213Z,14.93
2023-02-08T18:03:53.000Z,13.95
2023-02-08T18:06:21.053Z,15.63
2023-02-08T18:08:47.828Z,14.65
2023-02-08T18:11:21.176Z,14.75
2023-02-08T18:13:50.602Z,14.20
2023-02-08T18:16:24.380Z,14.38
2023-02-08T18:18:51.547Z,14.57
2023-02-08T18:21:22.445Z,16.05
2023-02-08T18:23:52.783Z,14.57
2023-02-08T18:26:24.062Z,15.35
2023-02-08T18:28:52.023Z,15.60
2023-02-08T18:31:20.668Z,16.13
2023-02-08T18:33:49.748Z,15.70
2023-02-08T18:36:18.391Z,15.85
2023-02-08T18:38:47.549Z,15.73
2023-02-08T18:41:19.549Z,15.57
2023-02-08T18:43:46.522Z,15.85
2023-02-08T18:46:18.110Z,16.17
2023-02-08T18:48:46.571Z,17.20
2023-02-08T18:51:14.934Z,16.58
2023-02-08T18:53:42.946Z,16.27
2023-02-08T18:56:12.809Z,16.23
2023-02-08T18:58:40.064Z,16.60
2023-02-08T19:01:16.435Z,17.45
2023-02-08T19:03:44.984Z,17.40
2023-02-08T19:06:22.435Z,15.00
2023-02-08T19:08:53.030Z,17.55
2023-02-08T19:11:34.226Z,17.75
2023-02-08T19:14:04.392Z,16.55
2023-02-08T19:16:33.477Z,18.20
2023-02-08T19:19:01.445Z,16.15
2023-02-08T19:21:30.324Z,17.58
2023-02-08T19:24:00.931Z,16.60
2023-02-08T19:26:39.840Z,16.80
2023-02-08T19:29:14.694Z,15.40
2023-02-08T19:34:11.995Z,17.33
2023-02-08T19:36:49.436Z,15.80
2023-02-08T19:39:21.266Z,17.00
2023-02-08T19:41:49.447Z,17.77
2023-02-08T19:44:19.075Z,15.98
2023-02-08T19:46:54.379Z,16.38
2023-02-08T19:49:26.061Z,18.65
2023-02-08T19:51:53.471Z,18.08
2023-02-08T19:54:21.573Z,17.80
2023-02-08T19:56:50.502Z,16.33
2023-02-08T19:59:25.335Z,18.40
2023-02-08T20:04:20.730Z,18.65
2023-02-08T20:06:53.106Z,19.40
2023-02-08T20:09:21.257Z,20.02
2023-02-08T20:11:56.971Z,19.23
2023-02-08T20:14:33.615Z,18.42
2023-02-08T20:17:03.708Z,18.10
2023-02-08T20:19:31.347Z,18.55
2023-02-08T20:21:59.193Z,17.88
2023-02-08T20:24:27.120Z,18.10
2023-02-08T20:26:54.996Z,18.17
2023-02-08T20:29:22.862Z,16.48
2023-02-08T20:31:53.674Z,17.42
2023-02-08T20:34:23.558Z,18.33
2023-02-08T20:37:05.858Z,19.75
2023-02-08T20:39:35.027Z,19.60
2023-02-08T20:42:01.880Z,19.33
2023-02-08T20:44:28.795Z,18.58
2023-02-08T20:46:55.818Z,20.02
2023-02-08T20:49:25.721Z,19.88
2023-02-08T20:51:55.843Z,18.15
2023-02-08T20:54:25.638Z,17.75
2023-02-08T20:56:54.271Z,19.77
2023-02-08T20:59:21.502Z,18.33
2023-02-08T21:01:48.607Z,17.63
2023-02-08T21:04:17.258Z,19.13
2023-02-08T21:06:46.106Z,18.65
2023-02-08T21:09:15.398Z,18.27
2023-02-08T21:11:42.442Z,17.13
2023-02-08T21:14:15.437Z,17.92
2023-02-08T21:16:42.348Z,17.55
2023-02-08T21:19:10.915Z,18.70
2023-02-08T21:21:37.686Z,17.45
2023-02-08T21:24:05.605Z,19.02
2023-02-08T21:26:32.436Z,17.50
2023-02-08T21:29:00.892Z,18.42
2023-02-08T21:31:28.059Z,17.63
2023-02-08T21:33:56.824Z,18.55
2023-02-08T21:36:26.155Z,18.85
2023-02-08T21:38:54.162Z,19.45
2023-02-08T21:41:28.326Z,17.63
2023-02-08T21:43:58.678Z,15.55
2023-02-08T21:46:27.983Z,19.38
2023-02-08T21:49:15.145Z,28.27
2023-02-08T21:52:01.222Z,20.55
2023-02-08T21:54:42.657Z,19.25
2023-02-08T21:57:13.952Z,18.23
2023-02-08T21:59:41.388Z,18.60
2023-02-08T22:02:21.927Z,18.33
2023-02-08T22:05:08.754Z,17.45
2023-02-08T22:07:54.639Z,18.58
2023-02-08T22:10:25.967Z,19.77
2023-02-08T22:12:53.676Z,19.85
2023-02-08T22:15:23.535Z,17.13
2023-02-08T22:17:55.922Z,16.85
2023-02-08T22:20:23.283Z,16.98
2023-02-08T22:22:53.130Z,16.38
2023-02-08T22:25:22.506Z,15.18
2023-02-08T22:27:49.783Z,14.93
2023-02-08T22:30:18.944Z,15.95
2023-02-08T22:32:48.407Z,16.15
2023-02-08T22:35:17.806Z,15.43
2023-02-08T22:37:44.989Z,15.07
2023-02-08T22:40:12.926Z,14.68
2023-02-08T22:42:41.209Z,14.90
2023-02-08T22:45:08.931Z,14.68
2023-02-08T22:47:36.437Z,14.05
2023-02-08T22:50:05.061Z,14.00
2023-02-08T22:52:34.528Z,15.13
2023-02-08T22:55:04.170Z,14.10
2023-02-08T22:57:35.951Z,13.38
2023-02-08T23:00:06.141Z,14.55
2023-02-08T23:02:33.314Z,13.88
2023-02-08T23:05:00.174Z,14.38
2023-02-08T23:07:27.129Z,13.63
2023-02-08T23:09:54.066Z,13.98
2023-02-08T23:12:20.885Z,13.63
2023-02-08T23:14:49.624Z,14.75
2023-02-08T23:17:17.073Z,14.52
2023-02-08T23:19:43.860Z,14.32
2023-02-08T23:22:10.700Z,14.40
2023-02-08T23:24:37.458Z,14.35
2023-02-08T23:27:04.597Z,13.95
2023-02-08T23:29:31.459Z,14.27
2023-02-08T23:31:58.324Z,15.25
2023-02-08T23:34:25.165Z,15.48
2023-02-08T23:36:52.097Z,15.80
2023-02-08T23:39:18.865Z,15.73
2023-02-08T23:41:45.911Z,15.07
2023-02-08T23:44:12.800Z,16.77
2023-02-08T23:46:39.695Z,17.35
2023-02-08T23:49:06.821Z,17.65
2023-02-08T23:51:33.581Z,17.05
2023-02-08T23:54:00.398Z,17.08
2023-02-08T23:56:30.104Z,17.25
2023-02-08T23:58:59.422Z,18.25
